Time;durP1;ratioP1;P1;durP2;ratioP2;P2;SDS_P1;SDS_P2;PMS_P1;PMS_P2;Temp;Humidity;BMP_temperature;BMP_pressure;BME280_temperature;BME280_humidity;BME280_pressure;Samples;Min_cycle;Max_cycle;Signal;HPM_P1;HPM_P2
2022/11/19 00:01:20;;;;;;;3.80;1.60;;;5.70;99.90;;;;;;5028412;28;20302;-35
2022/11/19 00:03:47;;;;;;;1.63;1.52;;;5.80;99.90;;;;;;5028355;28;20115;-36
2022/11/19 00:06:18;;;;;;;3.70;3.30;;;5.80;99.90;;;;;;5026021;28;20120;-39
2022/11/19 00:08:44;;;;;;;6.03;5.45;;;5.70;99.90;;;;;;5024389;28;20033;-39
2022/11/19 00:12:53;;;;;;;4.18;3.38;;;5.70;99.90;;;;;;5028823;28;20394;-41
2022/11/19 00:14:01;;;;;;;4.20;3.80;;;5.70;99.90;;;;;;5026303;28;20030;-35
2022/11/19 00:16:27;;;;;;;2.38;1.90;;;5.70;99.90;;;;;;5026448;28;20136;-37
2022/11/19 00:18:52;;;;;;;1.90;1.77;;;5.70;99.90;;;;;;5024470;28;20532;-34
2022/11/19 00:21:18;;;;;;;1.52;1.42;;;5.60;99.90;;;;;;5023636;28;20562;-41
2022/11/19 00:23:44;;;;;;;1.30;1.20;;;5.60;99.90;;;;;;5028642;28;20450;-41
2022/11/19 00:26:12;;;;;;;1.48;1.35;;;5.50;99.90;;;;;;5025182;28;20026;-42
2022/11/19 00:28:38;;;;;;;1.65;1.48;;;5.50;99.90;;;;;;5027109;28;20498;-41
2022/11/19 00:31:06;;;;;;;2.75;1.35;;;5.40;99.90;;;;;;5024136;28;20777;-41
2022/11/19 00:33:32;;;;;;;1.85;1.67;;;5.40;99.90;;;;;;5024487;28;20025;-41
2022/11/19 00:35:59;;;;;;;1.98;1.60;;;5.40;99.90;;;;;;5026019;28;20038;-40
2022/11/19 00:38:25;;;;;;;1.38;1.27;;;5.40;99.90;;;;;;5025650;28;20029;-40
2022/11/19 00:40:51;;;;;;;1.25;1.15;;;5.40;99.90;;;;;;5025684;28;20436;-41
2022/11/19 00:46:04;;;;;;;5.15;2.90;;;5.10;99.90;;;;;;5022502;28;20063;-35
2022/11/19 00:48:29;;;;;;;2.03;1.67;;;5.10;99.90;;;;;;5025936;28;20424;-41
2022/11/19 00:50:55;;;;;;;14.60;6.75;;;5.10;99.90;;;;;;5027959;28;20029;-40
2022/11/19 00:53:20;;;;;;;23.60;10.85;;;5.10;99.90;;;;;;5026365;28;20410;-37
2022/11/19 00:55:46;;;;;;;43.78;18.75;;;5.20;99.90;;;;;;5024691;28;20044;-37
2022/11/19 00:58:12;;;;;;;50.92;17.50;;;5.10;99.90;;;;;;5024647;28;20037;-41
2022/11/19 01:00:38;;;;;;;38.88;14.38;;;5.10;99.90;;;;;;5027567;28;20474;-39
2022/11/19 01:03:04;;;;;;;53.80;17.35;;;5.10;99.90;;;;;;5028043;28;20034;-41
2022/11/19 01:05:29;;;;;;;54.35;19.38;;;5.10;99.90;;;;;;5007402;28;20037;-41
2022/11/19 01:07:55;;;;;;;18.25;7.72;;;5.00;99.90;;;;;;5024378;28;20040;-42
2022/11/19 01:10:21;;;;;;;16.65;6.97;;;5.00;99.90;;;;;;5011530;28;20091;-40
2022/11/19 01:15:30;;;;;;;11.55;6.15;;;5.00;99.90;;;;;;5025945;28;20044;-42
2022/11/19 01:17:56;;;;;;;11.45;6.30;;;5.00;99.90;;;;;;5027447;28;20049;-38
2022/11/19 01:20:21;;;;;;;14.15;7.47;;;5.00;99.90;;;;;;5024278;28;20053;-42
2022/11/19 01:22:47;;;;;;;9.18;5.60;;;5.00;99.90;;;;;;5027751;28;20045;-41
2022/11/19 01:25:13;;;;;;;15.90;8.35;;;5.00;99.90;;;;;;5028251;28;20437;-41
2022/11/19 01:27:39;;;;;;;17.98;8.55;;;4.90;99.90;;;;;;5030741;28;20037;-35
2022/11/19 01:30:05;;;;;;;10.05;5.32;;;4.90;99.90;;;;;;5030825;28;20037;-39
2022/11/19 01:32:31;;;;;;;10.55;6.40;;;4.80;99.90;;;;;;5029624;28;20041;-39
2022/11/19 01:34:57;;;;;;;6.57;4.00;;;4.80;99.90;;;;;;5014145;28;20442;-35
2022/11/19 01:37:23;;;;;;;6.03;4.45;;;4.90;99.90;;;;;;5029516;28;20021;-39
2022/11/19 01:39:49;;;;;;;6.40;4.65;;;4.90;99.90;;;;;;5026490;28;20036;-42
2022/11/19 01:42:48;;;;;;;8.98;4.40;;;4.80;99.90;;;;;;5030086;28;20061;-41
2022/11/19 01:45:37;;;;;;;6.95;4.20;;;4.80;99.90;;;;;;5031255;28;20103;-38
2022/11/19 01:48:18;;;;;;;9.50;5.60;;;4.70;99.90;;;;;;5029837;28;20525;-41
2022/11/19 01:50:48;;;;;;;21.63;10.07;;;4.70;99.90;;;;;;5020507;28;21059;-41
2022/11/19 01:53:14;;;;;;;27.90;12.18;;;4.70;99.90;;;;;;5030476;28;20029;-38
2022/11/19 01:55:43;;;;;;;30.17;12.57;;;4.80;99.90;;;;;;5028966;28;20030;-35
2022/11/19 01:58:10;;;;;;;32.35;13.65;;;4.70;99.90;;;;;;5030693;28;20052;-41
2022/11/19 02:00:36;;;;;;;17.80;8.27;;;4.70;99.90;;;;;;5028539;28;20049;-39
2022/11/19 02:03:02;;;;;;;23.48;13.93;;;4.60;99.90;;;;;;5028809;28;20475;-37
2022/11/19 02:05:27;;;;;;;13.77;9.45;;;4.60;99.90;;;;;;5026430;28;20034;-39
2022/11/19 02:07:56;;;;;;;9.20;6.43;;;4.60;99.90;;;;;;5027403;28;20033;-42
2022/11/19 02:10:39;;;;;;;57.72;27.05;;;4.60;99.90;;;;;;5027906;28;20088;-41
2022/11/19 02:13:19;;;;;;;24.95;11.07;;;4.60;99.90;;;;;;5028801;28;20163;-41
2022/11/19 02:15:52;;;;;;;8.77;6.25;;;4.70;99.90;;;;;;5025590;28;20057;-34
2022/11/19 02:18:53;;;;;;;11.40;6.68;;;4.70;99.90;;;;;;5030120;28;20021;-41
2022/11/19 02:21:59;;;;;;;2.42;1.60;;;4.70;99.90;;;;;;5028777;28;20406;-41
2022/11/19 02:24:46;;;;;;;1.77;1.30;;;4.70;99.90;;;;;;5030088;28;20095;-42
2022/11/19 02:27:45;;;;;;;2.00;1.35;;;4.70;99.90;;;;;;5024268;28;20057;-35
2022/11/19 02:30:15;;;;;;;2.67;2.15;;;4.80;99.90;;;;;;5020601;28;20398;-41
2022/11/19 02:32:57;;;;;;;1.75;1.50;;;4.80;99.90;;;;;;5027961;28;20390;-38
2022/11/19 02:35:48;;;;;;;2.25;1.52;;;4.80;99.90;;;;;;5025147;28;20068;-39
2022/11/19 02:38:35;;;;;;;1.52;1.42;;;4.80;99.90;;;;;;5023954;28;20463;-39
2022/11/19 02:41:32;;;;;;;2.53;1.80;;;4.90;99.90;;;;;;5028654;28;20060;-39
2022/11/19 02:46:58;;;;;;;1.83;1.73;;;4.90;99.90;;;;;;5029862;28;20044;-41
2022/11/19 02:49:28;;;;;;;3.08;1.70;;;5.00;99.90;;;;;;5027614;28;20450;-40
2022/11/19 02:51:54;;;;;;;3.50;1.92;;;5.00;99.90;;;;;;5030237;28;20029;-42
2022/11/19 02:54:20;;;;;;;1.40;1.30;;;5.10;99.90;;;;;;5025210;28;20033;-40
2022/11/19 02:56:52;;;;;;;3.92;2.00;;;5.10;99.90;;;;;;5003786;28;20083;-40
2022/11/19 03:06:08;;;;;;;2.33;1.88;;;5.20;99.90;;;;;;5021650;28;20114;-40
2022/11/19 03:08:34;;;;;;;1.20;1.20;;;5.20;99.90;;;;;;5027099;28;20160;-42
2022/11/19 03:11:25;;;;;;;4.18;2.08;;;5.20;99.90;;;;;;5029997;28;20807;-41
2022/11/19 03:17:10;;;;;;;5.47;1.97;;;5.30;99.90;;;;;;5027106;28;20091;-39
2022/11/19 03:20:11;;;;;;;2.28;2.17;;;5.30;99.90;;;;;;5027914;28;20026;-37
2022/11/19 03:22:47;;;;;;;2.00;1.90;;;5.30;99.90;;;;;;5025939;28;20086;-37
2022/11/19 03:25:23;;;;;;;2.00;1.33;;;5.30;99.90;;;;;;5027413;28;20037;-41
2022/11/19 03:27:54;;;;;;;2.83;2.17;;;5.40;99.90;;;;;;5027997;28;20030;-41
2022/11/19 03:30:20;;;;;;;4.85;2.45;;;5.40;99.90;;;;;;5028115;28;20033;-40
2022/11/19 03:33:14;;;;;;;1.50;1.15;;;5.40;99.90;;;;;;5009661;28;20029;-40
2022/11/19 03:35:45;;;;;;;3.20;2.38;;;5.40;99.90;;;;;;5027596;28;20033;-40
2022/11/19 03:38:17;;;;;;;3.33;2.30;;;5.40;99.90;;;;;;5029027;28;20152;-41
2022/11/19 03:40:44;;;;;;;2.50;2.30;;;5.40;99.90;;;;;;5025303;28;20108;-40
2022/11/19 03:43:14;;;;;;;2.78;2.30;;;5.40;99.90;;;;;;5027976;28;20037;-40
2022/11/19 03:45:44;;;;;;;4.47;3.00;;;5.40;99.90;;;;;;5026433;28;20037;-40
2022/11/19 03:48:13;;;;;;;3.95;2.55;;;5.40;99.90;;;;;;5026639;28;20061;-40
2022/11/19 03:50:56;;;;;;;3.35;2.40;;;5.40;99.90;;;;;;5026631;28;20041;-40
2022/11/19 03:53:22;;;;;;;3.00;2.15;;;5.40;99.90;;;;;;5027846;28;20494;-41
2022/11/19 03:56:14;;;;;;;2.50;2.30;;;5.50;99.90;;;;;;5025604;28;20081;-41
2022/11/19 03:58:42;;;;;;;4.05;2.10;;;5.40;99.90;;;;;;5021606;28;20025;-37
2022/11/19 04:01:08;;;;;;;;;;;5.50;99.90;;;;;;5025629;28;20040;-33
2022/11/19 04:03:34;;;;;;;3.15;2.42;;;5.40;99.90;;;;;;5028229;28;19916;-40
2022/11/19 04:06:00;;;;;;;3.75;2.30;;;5.50;99.90;;;;;;5028280;28;20418;-40
2022/11/19 04:08:25;;;;;;;7.05;3.42;;;5.50;99.90;;;;;;5024702;28;22486;-40
2022/11/19 04:10:51;;;;;;;2.10;1.90;;;5.50;99.90;;;;;;5008050;28;20018;-41
2022/11/19 04:13:16;;;;;;;2.80;2.47;;;5.50;99.90;;;;;;5026993;28;20145;-41
2022/11/19 04:15:42;;;;;;;4.10;2.88;;;5.50;99.90;;;;;;5027749;28;20029;-39
2022/11/19 04:18:08;;;;;;;5.93;2.70;;;5.50;99.90;;;;;;5027053;28;20034;-41
2022/11/19 04:20:33;;;;;;;3.28;2.95;;;5.50;99.90;;;;;;5028435;28;20030;-38
2022/11/19 04:22:59;;;;;;;3.42;2.65;;;5.50;99.90;;;;;;5026014;28;20045;-40
2022/11/19 04:25:25;;;;;;;3.50;2.70;;;5.50;99.90;;;;;;5027119;28;20048;-37
2022/11/19 04:27:50;;;;;;;3.60;2.63;;;5.60;99.90;;;;;;5027438;28;20082;-38
2022/11/19 04:30:16;;;;;;;4.13;2.72;;;5.60;99.90;;;;;;5024540;28;20090;-39
2022/11/19 04:32:42;;;;;;;4.40;2.40;;;5.60;99.90;;;;;;5025014;28;20036;-41
2022/11/19 04:35:08;;;;;;;3.20;2.90;;;5.60;99.90;;;;;;5022171;28;20559;-41
2022/11/19 04:37:34;;;;;;;6.25;2.30;;;5.60;99.90;;;;;;5024429;28;20022;-40
2022/11/19 04:40:00;;;;;;;4.28;2.63;;;5.60;99.90;;;;;;5024522;28;20387;-41
2022/11/19 04:42:25;;;;;;;3.88;2.85;;;5.60;99.90;;;;;;5025500;28;20411;-38
2022/11/19 04:44:51;;;;;;;7.88;3.20;;;5.60;99.90;;;;;;5024658;28;20096;-40
2022/11/19 04:47:17;;;;;;;5.30;2.75;;;5.60;99.90;;;;;;5027641;28;20555;-41
2022/11/19 04:49:42;;;;;;;3.38;2.47;;;5.60;99.90;;;;;;5023455;28;20108;-36
2022/11/19 04:52:08;;;;;;;3.85;3.00;;;5.60;99.90;;;;;;5011033;28;20033;-42
2022/11/19 04:54:33;;;;;;;3.08;2.80;;;5.60;99.90;;;;;;5018454;28;20022;-41
2022/11/19 04:56:59;;;;;;;3.20;2.67;;;5.60;99.90;;;;;;5009454;28;20055;-41
2022/11/19 04:59:24;;;;;;;3.38;2.65;;;5.60;99.90;;;;;;5028345;28;20052;-36
2022/11/19 05:01:50;;;;;;;4.90;2.70;;;5.60;99.90;;;;;;5025813;28;20041;-42
2022/11/19 05:04:16;;;;;;;5.32;3.53;;;5.60;99.90;;;;;;5027992;28;20522;-40
2022/11/19 05:06:42;;;;;;;3.85;2.25;;;5.60;99.90;;;;;;5026361;28;20032;-41
2022/11/19 05:09:07;;;;;;;4.13;2.67;;;5.50;99.90;;;;;;5026135;28;20037;-41
2022/11/19 05:11:33;;;;;;;4.32;2.25;;;5.50;99.90;;;;;;5024635;28;20029;-39
2022/11/19 05:13:58;;;;;;;4.50;2.63;;;5.60;99.90;;;;;;5026777;28;20030;-42
2022/11/19 05:16:24;;;;;;;3.13;2.17;;;5.50;99.90;;;;;;5028088;28;20056;-41
2022/11/19 05:18:49;;;;;;;3.53;3.08;;;5.50;99.90;;;;;;5027503;28;20033;-41
2022/11/19 05:21:15;;;;;;;2.00;1.90;;;5.50;99.90;;;;;;5027261;28;20029;-42
2022/11/19 05:23:41;;;;;;;3.95;2.25;;;5.50;99.90;;;;;;5024266;28;20736;-41
2022/11/19 05:26:06;;;;;;;2.10;1.83;;;5.40;99.90;;;;;;5027869;28;20037;-39
2022/11/19 05:28:32;;;;;;;2.70;1.90;;;5.50;99.90;;;;;;5024264;28;20450;-37
2022/11/19 05:30:58;;;;;;;2.67;2.33;;;5.50;99.90;;;;;;5025519;28;20046;-40
2022/11/19 05:33:24;;;;;;;2.53;2.33;;;5.40;99.90;;;;;;5025542;28;20133;-41
2022/11/19 05:35:50;;;;;;;2.42;2.22;;;5.40;99.90;;;;;;5027638;28;20480;-40
2022/11/19 05:38:16;;;;;;;3.90;3.03;;;5.40;99.90;;;;;;5010238;28;20029;-42
2022/11/19 05:40:44;;;;;;;4.18;3.13;;;5.40;99.90;;;;;;5025508;28;20131;-39
2022/11/19 05:43:10;;;;;;;;;;;5.40;99.90;;;;;;5008475;28;20068;-40
2022/11/19 05:45:36;;;;;;;2.50;2.22;;;5.50;99.90;;;;;;5027414;28;20219;-40
2022/11/19 05:48:02;;;;;;;3.65;2.78;;;5.50;99.90;;;;;;5026164;28;20091;-41
2022/11/19 05:50:28;;;;;;;6.97;2.53;;;5.40;99.90;;;;;;5026608;28;20029;-40
2022/11/19 05:52:53;;;;;;;3.92;2.65;;;5.50;99.90;;;;;;5023558;28;20049;-37
2022/11/19 05:55:19;;;;;;;4.35;2.70;;;5.50;99.90;;;;;;5026296;28;20582;-38
2022/11/19 05:57:45;;;;;;;2.60;2.33;;;5.50;99.90;;;;;;5026797;28;20112;-40
2022/11/19 06:00:11;;;;;;;8.57;3.05;;;5.50;99.90;;;;;;5013727;28;20227;-37
2022/11/19 06:02:37;;;;;;;5.07;2.75;;;5.50;99.90;;;;;;5024294;28;20056;-41
2022/11/19 06:05:04;;;;;;;3.80;2.65;;;5.50;99.90;;;;;;5020343;28;20483;-35
2022/11/19 06:07:29;;;;;;;5.15;3.70;;;5.50;99.90;;;;;;5015991;28;21085;-41
2022/11/19 06:09:55;;;;;;;3.80;2.17;;;5.50;99.90;;;;;;5015721;28;20033;-36
2022/11/19 06:12:21;;;;;;;4.30;2.55;;;5.50;99.90;;;;;;5017918;28;20033;-35
2022/11/19 06:14:46;;;;;;;3.70;3.20;;;5.50;99.90;;;;;;5013127;28;20121;-37
2022/11/19 06:17:12;;;;;;;2.60;2.40;;;5.50;99.90;;;;;;5016865;28;20052;-41
2022/11/19 06:19:37;;;;;;;2.92;2.63;;;5.40;99.90;;;;;;5028345;28;20378;-42
2022/11/19 06:22:04;;;;;;;2.95;2.55;;;5.40;99.90;;;;;;5029034;28;20092;-40
2022/11/19 06:24:29;;;;;;;4.20;2.65;;;5.40;99.90;;;;;;5028955;28;20100;-41
2022/11/19 06:26:55;;;;;;;3.55;2.75;;;5.40;99.90;;;;;;5030466;28;20033;-40
2022/11/19 06:29:20;;;;;;;3.42;2.33;;;5.30;99.90;;;;;;5030376;28;20037;-39
2022/11/19 06:31:46;;;;;;;4.00;2.90;;;5.30;99.90;;;;;;5027560;28;20072;-40
2022/11/19 06:34:12;;;;;;;4.38;2.70;;;5.30;99.90;;;;;;5028888;28;20029;-40
2022/11/19 06:36:38;;;;;;;6.43;3.13;;;5.30;99.90;;;;;;5031782;28;20018;-41
2022/11/19 06:39:03;;;;;;;4.15;2.83;;;5.30;99.90;;;;;;5028483;28;20026;-41
2022/11/19 06:41:29;;;;;;;5.35;3.33;;;5.30;99.90;;;;;;5027720;28;20017;-41
2022/11/19 06:43:54;;;;;;;2.85;2.45;;;5.30;99.90;;;;;;5028522;28;20386;-41
2022/11/19 06:46:20;;;;;;;3.40;2.70;;;5.30;99.90;;;;;;5010021;28;20506;-41
2022/11/19 06:48:45;;;;;;;3.88;2.55;;;5.20;99.90;;;;;;5025098;28;20122;-42
2022/11/19 06:51:11;;;;;;;5.18;2.50;;;5.20;99.90;;;;;;5012692;28;20079;-41
2022/11/19 06:53:38;;;;;;;3.15;2.85;;;5.20;99.90;;;;;;5032847;28;20030;-41
2022/11/19 06:56:06;;;;;;;3.58;2.65;;;5.20;99.90;;;;;;5026220;28;20562;-41
2022/11/19 06:58:32;;;;;;;3.20;2.13;;;5.30;99.90;;;;;;5025764;28;20029;-38
2022/11/19 07:00:57;;;;;;;3.72;2.38;;;5.30;99.90;;;;;;5026933;28;20038;-41
2022/11/19 07:03:24;;;;;;;3.35;2.67;;;5.30;99.90;;;;;;5028457;28;20375;-38
2022/11/19 07:05:55;;;;;;;2.25;2.00;;;5.30;99.90;;;;;;5028004;28;20398;-41
2022/11/19 07:08:21;;;;;;;3.92;3.00;;;5.30;99.90;;;;;;5027678;28;20071;-41
2022/11/19 07:10:47;;;;;;;4.00;3.20;;;5.40;99.90;;;;;;5025886;28;20040;-41
2022/11/19 07:13:12;;;;;;;6.28;2.80;;;5.40;99.90;;;;;;5026977;28;20033;-35
2022/11/19 07:15:38;;;;;;;3.05;2.58;;;5.30;99.90;;;;;;5027814;28;20063;-36
2022/11/19 07:18:04;;;;;;;4.15;2.70;;;5.40;99.90;;;;;;5034050;28;20029;-34
2022/11/19 07:20:29;;;;;;;3.55;2.88;;;5.40;99.90;;;;;;5025594;28;20021;-41
2022/11/19 07:22:55;;;;;;;5.32;3.67;;;5.30;99.90;;;;;;5025440;28;20041;-42
2022/11/19 07:25:21;;;;;;;4.85;3.00;;;5.40;99.90;;;;;;5024048;28;20053;-41
2022/11/19 07:27:46;;;;;;;4.18;2.97;;;5.40;99.90;;;;;;5028168;28;20099;-40
2022/11/19 07:30:14;;;;;;;3.33;2.83;;;5.50;99.90;;;;;;5024113;28;20060;-36
2022/11/19 07:32:40;;;;;;;3.50;2.92;;;5.50;99.90;;;;;;5018530;28;20046;-41
2022/11/19 07:35:08;;;;;;;5.20;3.50;;;5.50;99.90;;;;;;5000781;28;20043;-41
2022/11/19 07:37:34;;;;;;;4.00;3.28;;;5.60;99.90;;;;;;5024120;28;20041;-36
2022/11/19 07:40:01;;;;;;;3.88;3.00;;;5.60;99.90;;;;;;5021390;28;20099;-41
2022/11/19 07:45:11;;;;;;;3.42;2.85;;;5.60;99.90;;;;;;5027693;28;20489;-39
2022/11/19 07:47:36;;;;;;;3.05;2.78;;;5.70;99.90;;;;;;5027111;28;20026;-39
2022/11/19 07:50:03;;;;;;;4.15;2.67;;;5.70;99.90;;;;;;5029154;28;20442;-40
2022/11/19 07:52:29;;;;;;;4.38;3.17;;;5.70;99.90;;;;;;5021730;28;20095;-36
2022/11/19 07:54:55;;;;;;;3.10;2.78;;;5.70;99.90;;;;;;5005094;28;20497;-41
2022/11/19 07:57:21;;;;;;;3.55;3.05;;;5.80;99.90;;;;;;5026356;28;20033;-34
2022/11/19 07:59:47;;;;;;;3.55;3.20;;;5.80;99.90;;;;;;5029040;28;20053;-41
2022/11/19 08:02:13;;;;;;;4.10;3.00;;;5.80;99.90;;;;;;5027637;28;20057;-38
2022/11/19 08:04:39;;;;;;;6.45;3.35;;;5.80;99.90;;;;;;5029585;28;20585;-41
2022/11/19 08:07:05;;;;;;;4.75;3.08;;;5.80;99.90;;;;;;5028544;28;20116;-41
2022/11/19 08:09:32;;;;;;;5.30;3.20;;;5.80;99.90;;;;;;5027769;28;20397;-42
2022/11/19 08:11:57;;;;;;;5.72;2.70;;;5.90;99.90;;;;;;5025908;28;20499;-40
2022/11/19 08:14:23;;;;;;;4.72;3.25;;;5.90;99.90;;;;;;5027956;28;20147;-38
2022/11/19 08:19:33;;;;;;;3.92;2.92;;;5.90;99.90;;;;;;5020893;28;20514;-40
2022/11/19 08:21:59;;;;;;;5.82;2.83;;;6.00;99.90;;;;;;5026452;28;20021;-41
2022/11/19 08:24:24;;;;;;;4.25;3.08;;;6.00;99.90;;;;;;5029054;28;20052;-41
2022/11/19 08:26:50;;;;;;;3.47;2.40;;;6.00;99.90;;;;;;5022578;28;20041;-41
2022/11/19 08:29:18;;;;;;;5.53;3.33;;;6.00;99.90;;;;;;5019739;28;20033;-40
2022/11/19 08:31:46;;;;;;;3.55;2.88;;;6.10;99.90;;;;;;5023683;28;20075;-40
2022/11/19 08:34:11;;;;;;;3.72;2.95;;;6.00;99.90;;;;;;5015356;28;20099;-41
2022/11/19 08:36:37;;;;;;;3.60;3.15;;;6.10;99.90;;;;;;5019741;28;20033;-40
2022/11/19 08:39:03;;;;;;;6.50;3.13;;;6.10;99.90;;;;;;5020875;28;20121;-34
2022/11/19 08:44:27;;;;;;;;;;;6.20;99.90;;;;;;4996730;28;20403;-35
2022/11/19 08:46:52;;;;;;;3.67;2.42;;;6.20;99.90;;;;;;5018777;28;19924;-35
2022/11/19 08:49:18;;;;;;;3.60;2.95;;;6.20;99.90;;;;;;5021397;28;20021;-39
2022/11/19 08:51:43;;;;;;;3.60;2.55;;;6.20;99.90;;;;;;5020211;28;20450;-39
2022/11/19 08:54:09;;;;;;;3.55;2.50;;;6.20;99.90;;;;;;5020213;28;20064;-35
2022/11/19 08:56:35;;;;;;;5.10;3.22;;;6.30;99.90;;;;;;5017612;28;20048;-39
2022/11/19 08:59:00;;;;;;;4.15;2.67;;;6.20;99.90;;;;;;5019835;28;20064;-41
2022/11/19 09:01:26;;;;;;;2.65;2.35;;;6.20;99.90;;;;;;5023658;28;20475;-39
2022/11/19 09:03:51;;;;;;;6.78;2.65;;;6.20;99.90;;;;;;5019871;28;20025;-39
2022/11/19 09:06:18;;;;;;;3.47;2.63;;;6.20;99.90;;;;;;5022548;28;20096;-36
2022/11/19 09:08:43;;;;;;;3.25;2.47;;;6.30;99.90;;;;;;5006986;28;20033;-37
2022/11/19 09:11:12;;;;;;;2.28;2.08;;;6.30;99.90;;;;;;5020545;28;20029;-41
2022/11/19 09:13:38;;;;;;;3.40;2.10;;;6.30;99.90;;;;;;5009927;28;20402;-41
2022/11/19 09:16:04;;;;;;;3.80;2.20;;;6.30;99.90;;;;;;5021009;28;20037;-40
2022/11/19 09:18:30;;;;;;;2.30;2.10;;;6.30;99.90;;;;;;5024403;28;20033;-40
2022/11/19 09:20:56;;;;;;;2.22;1.83;;;6.40;99.90;;;;;;5005507;28;20024;-36
2022/11/19 09:23:23;;;;;;;3.42;2.63;;;6.40;99.90;;;;;;5022900;28;20078;-40
2022/11/19 09:26:00;;;;;;;2.58;2.22;;;6.40;99.90;;;;;;5023731;28;20479;-38
2022/11/19 09:28:28;;;;;;;1.55;1.45;;;6.40;99.90;;;;;;5025605;28;20029;-41
2022/11/19 09:31:06;;;;;;;3.70;2.30;;;6.40;99.90;;;;;;5027360;28;20399;-41
2022/11/19 09:33:34;;;;;;;3.20;1.98;;;6.50;99.90;;;;;;5021376;28;20038;-40
2022/11/19 09:36:00;;;;;;;1.90;1.73;;;6.50;99.90;;;;;;5021998;28;20080;-41
2022/11/19 09:38:26;;;;;;;4.00;2.63;;;6.50;99.90;;;;;;5025814;28;20065;-41
2022/11/19 09:40:56;;;;;;;1.38;1.30;;;6.50;99.90;;;;;;5020547;28;20084;-41
2022/11/19 09:43:36;;;;;;;1.70;1.55;;;6.60;99.90;;;;;;5020689;28;20072;-41
2022/11/19 09:46:33;;;;;;;1.60;1.50;;;6.60;99.90;;;;;;5026976;28;20109;-41
2022/11/19 09:49:24;;;;;;;2.03;1.88;;;6.70;99.90;;;;;;4998850;28;20160;-42
2022/11/19 09:51:57;;;;;;;2.08;1.60;;;6.80;99.90;;;;;;5012063;28;20042;-38
2022/11/19 09:54:23;;;;;;;1.60;1.50;;;6.80;99.90;;;;;;5022811;28;20033;-39
2022/11/19 09:56:52;;;;;;;2.28;2.08;;;6.90;99.90;;;;;;5027387;28;20475;-41
2022/11/19 09:59:27;;;;;;;1.08;1.08;;;6.90;99.90;;;;;;5026755;28;20041;-36
2022/11/19 10:01:56;;;;;;;1.75;1.45;;;6.90;99.90;;;;;;5028406;28;20036;-39
2022/11/19 10:04:24;;;;;;;2.40;2.10;;;6.90;99.90;;;;;;5027345;28;20090;-39
2022/11/19 10:06:59;;;;;;;1.88;1.73;;;6.90;99.90;;;;;;5027718;28;20025;-41
2022/11/19 10:09:34;;;;;;;3.92;1.48;;;7.00;99.90;;;;;;5028029;28;20026;-42
2022/11/19 10:12:30;;;;;;;2.10;1.67;;;6.90;99.90;;;;;;5027531;28;20433;-38
2022/11/19 10:15:08;;;;;;;1.73;1.63;;;6.90;99.90;;;;;;5027365;28;20061;-35
2022/11/19 10:17:34;;;;;;;1.40;1.23;;;6.90;99.90;;;;;;5022183;28;20124;-36
2022/11/19 10:20:44;;;;;;;2.88;1.95;;;6.90;99.90;;;;;;5028608;28;20104;-41
2022/11/19 10:23:18;;;;;;;4.88;2.05;;;7.00;99.90;;;;;;5022881;28;20124;-36
2022/11/19 10:25:46;;;;;;;1.02;0.93;;;7.00;99.90;;;;;;5025868;28;20036;-33
2022/11/19 10:28:13;;;;;;;1.60;1.50;;;7.00;99.90;;;;;;5026434;28;20107;-34
2022/11/19 10:30:48;;;;;;;1.33;1.27;;;7.00;99.90;;;;;;5024088;28;20072;-37
2022/11/19 10:33:29;;;;;;;0.95;0.88;;;7.10;99.90;;;;;;5008966;28;20036;-37
2022/11/19 10:36:37;;;;;;;1.23;1.15;;;7.10;99.90;;;;;;5027773;28;20029;-34
2022/11/19 10:39:18;;;;;;;2.42;1.60;;;7.10;99.90;;;;;;5025726;28;20024;-36
2022/11/19 10:42:01;;;;;;;2.58;2.35;;;7.10;99.90;;;;;;5029090;28;20108;-38
2022/11/19 10:44:53;;;;;;;2.15;1.65;;;7.20;99.90;;;;;;5023225;28;20717;-40
2022/11/19 10:47:32;;;;;;;2.40;1.67;;;7.20;99.90;;;;;;5024599;28;20057;-41
2022/11/19 10:49:58;;;;;;;1.40;1.30;;;7.20;99.90;;;;;;5025231;28;20033;-39
2022/11/19 10:52:38;;;;;;;2.50;1.50;;;7.20;99.90;;;;;;5024188;28;20026;-36
2022/11/19 10:55:13;;;;;;;2.05;1.65;;;7.20;99.90;;;;;;5022412;28;20330;-41
2022/11/19 10:57:40;;;;;;;1.95;1.85;;;7.20;99.90;;;;;;5003826;28;20034;-39
2022/11/19 11:00:06;;;;;;;1.90;1.67;;;7.20;99.90;;;;;;5011850;28;20040;-41
2022/11/19 11:02:52;;;;;;;2.13;1.92;;;7.30;99.90;;;;;;5024766;28;20495;-41
2022/11/19 11:05:18;;;;;;;2.40;2.20;;;7.40;99.90;;;;;;5025262;28;20471;-41
2022/11/19 11:07:53;;;;;;;0.90;0.90;;;7.40;99.90;;;;;;5022070;28;20025;-38
2022/11/19 11:10:43;;;;;;;2.65;2.00;;;7.40;99.90;;;;;;5026660;28;20033;-38
2022/11/19 11:16:39;;;;;;;2.03;1.90;;;7.40;99.90;;;;;;5025231;28;20536;-40
2022/11/19 11:19:18;;;;;;;2.17;1.98;;;7.30;99.90;;;;;;5026875;28;20087;-38
2022/11/19 11:21:44;;;;;;;2.90;1.65;;;7.40;99.90;;;;;;5026218;28;20376;-41
2022/11/19 11:24:12;;;;;;;2.47;1.77;;;7.50;99.90;;;;;;5025176;28;20412;-41
2022/11/19 11:26:39;;;;;;;3.40;1.80;;;7.50;99.90;;;;;;5026423;28;20037;-40
2022/11/19 11:29:11;;;;;;;2.10;1.70;;;7.50;99.90;;;;;;5017515;28;20505;-33
2022/11/19 11:31:40;;;;;;;2.10;1.77;;;7.50;99.90;;;;;;5019496;28;20053;-40
2022/11/19 11:34:26;;;;;;;1.85;1.75;;;7.50;99.90;;;;;;5026960;28;20030;-41
2022/11/19 11:36:53;;;;;;;1.55;1.45;;;7.50;99.90;;;;;;5021353;28;21117;-41
2022/11/19 11:39:49;;;;;;;1.65;1.55;;;7.60;99.90;;;;;;5027433;28;20044;-41
2022/11/19 11:42:18;;;;;;;4.80;1.55;;;7.60;99.90;;;;;;5008320;28;20042;-38
2022/11/19 11:44:51;;;;;;;2.45;1.85;;;7.60;99.90;;;;;;5022566;28;20289;-40
2022/11/19 11:47:30;;;;;;;1.90;1.13;;;7.60;99.90;;;;;;5022348;28;20532;-40
2022/11/19 11:50:22;;;;;;;1.15;1.15;;;7.70;99.90;;;;;;5008488;28;20033;-39
2022/11/19 11:52:50;;;;;;;1.17;1.05;;;7.70;99.90;;;;;;5025875;28;20041;-41
2022/11/19 11:55:25;;;;;;;1.23;1.23;;;7.70;99.90;;;;;;5024500;28;20087;-39
2022/11/19 11:57:56;;;;;;;2.03;1.40;;;7.80;99.90;;;;;;5023522;28;20061;-40
2022/11/19 12:00:41;;;;;;;1.92;1.83;;;7.90;99.90;;;;;;5026741;28;20032;-35
2022/11/19 12:03:09;;;;;;;1.00;0.95;;;7.90;99.90;;;;;;5027886;28;20049;-39
2022/11/19 12:05:50;;;;;;;1.67;1.58;;;8.00;99.90;;;;;;5020711;28;20033;-41
2022/11/19 12:08:22;;;;;;;3.05;1.52;;;8.10;99.90;;;;;;5023260;28;20041;-40
2022/11/19 12:11:01;;;;;;;2.10;1.63;;;8.30;99.90;;;;;;5028639;28;20371;-41
2022/11/19 12:13:48;;;;;;;0.93;0.82;;;8.20;99.90;;;;;;5025891;28;20518;-37
2022/11/19 12:16:28;;;;;;;0.90;0.90;;;8.10;99.90;;;;;;5019376;28;20383;-39
2022/11/19 12:19:21;;;;;;;1.20;1.10;;;8.10;99.90;;;;;;5023723;28;20037;-42
2022/11/19 12:22:13;;;;;;;1.38;1.10;;;8.10;99.90;;;;;;5022110;28;20041;-39
2022/11/19 12:25:06;;;;;;;1.27;1.02;;;8.10;99.90;;;;;;5024061;28;20065;-39
2022/11/19 12:28:07;;;;;;;1.65;1.05;;;8.20;99.90;;;;;;5020613;28;20030;-38
2022/11/19 12:30:54;;;;;;;1.75;1.35;;;8.30;99.90;;;;;;5026041;28;20040;-40
2022/11/19 12:33:38;;;;;;;1.23;1.10;;;8.30;99.90;;;;;;5021333;28;20049;-40
2022/11/19 12:36:20;;;;;;;2.47;0.95;;;8.40;99.90;;;;;;5022862;28;20025;-39
2022/11/19 12:39:06;;;;;;;0.68;0.68;;;8.60;99.90;;;;;;5022223;28;20064;-41
2022/11/19 12:41:57;;;;;;;1.30;1.20;;;8.70;99.90;;;;;;5024678;28;20029;-40
2022/11/19 12:44:57;;;;;;;1.63;1.23;;;8.70;99.90;;;;;;4982119;28;20029;-40
2022/11/19 12:47:43;;;;;;;2.72;1.55;;;8.70;99.90;;;;;;5027177;28;20724;-41
2022/11/19 12:50:17;;;;;;;1.17;1.08;;;8.70;99.90;;;;;;5007043;28;20517;-40
2022/11/19 12:53:18;;;;;;;5.70;1.40;;;8.70;99.90;;;;;;5028379;28;20032;-42
2022/11/19 12:55:47;;;;;;;2.70;1.25;;;8.70;99.90;;;;;;5020779;28;20037;-35
2022/11/19 12:58:15;;;;;;;1.20;1.10;;;8.80;99.90;;;;;;5021690;28;20498;-40
2022/11/19 13:00:51;;;;;;;2.00;1.23;;;8.70;99.90;;;;;;5023547;28;20657;-35
2022/11/19 13:03:43;;;;;;;2.00;1.10;;;8.60;99.90;;;;;;5027598;28;20025;-39
2022/11/19 13:06:16;;;;;;;1.20;1.10;;;8.60;99.90;;;;;;5022242;28;20044;-39
2022/11/19 13:08:57;;;;;;;1.88;1.13;;;8.50;99.90;;;;;;5021327;28;20037;-41
2022/11/19 13:11:38;;;;;;;2.90;1.15;;;8.60;99.90;;;;;;5025145;28;20052;-38
2022/11/19 13:14:34;;;;;;;2.45;1.13;;;8.50;99.90;;;;;;5023300;28;20442;-40
2022/11/19 13:17:02;;;;;;;1.48;1.20;;;8.50;99.90;;;;;;5015563;28;20140;-38
2022/11/19 13:19:33;;;;;;;2.40;1.13;;;8.50;99.90;;;;;;5026329;28;20060;-40
2022/11/19 13:22:18;;;;;;;1.92;1.05;;;8.50;99.90;;;;;;5031580;28;20038;-41
2022/11/19 13:24:50;;;;;;;0.68;0.68;;;8.40;99.90;;;;;;5011533;28;20072;-41
2022/11/19 13:27:19;;;;;;;1.13;1.08;;;8.40;99.90;;;;;;5030225;28;20029;-41
2022/11/19 13:29:58;;;;;;;1.48;0.80;;;8.40;99.90;;;;;;5030759;28;20043;-40
2022/11/19 13:32:42;;;;;;;;;;;8.40;99.90;;;;;;5006897;28;20115;-39
2022/11/19 13:35:31;;;;;;;0.82;0.70;;;8.40;99.90;;;;;;5024567;28;19919;-35
2022/11/19 13:38:11;;;;;;;3.47;1.10;;;8.50;99.90;;;;;;5025924;28;20412;-39
2022/11/19 13:40:43;;;;;;;5.55;1.10;;;8.60;99.90;;;;;;5022668;28;20562;-38
2022/11/19 13:46:07;;;;;;;0.90;0.90;;;8.50;99.90;;;;;;5023796;28;20095;-34
2022/11/19 13:48:39;;;;;;;1.30;1.17;;;8.40;99.90;;;;;;5021483;28;20039;-38
2022/11/19 13:51:08;;;;;;;1.00;1.00;;;8.40;99.90;;;;;;5027545;28;20518;-41
2022/11/19 13:53:40;;;;;;;1.13;1.10;;;8.40;99.90;;;;;;5029481;28;20036;-40